createdAt,value
2023-03-08T00:02:05.395Z,37.7
2023-03-08T00:07:05.776Z,37.7
2023-03-08T00:12:06.120Z,37.6
2023-03-08T00:17:06.532Z,37.6
2023-03-08T00:22:06.885Z,37.6
2023-03-08T00:27:07.248Z,37.5
2023-03-08T00:32:07.679Z,37.4
2023-03-08T00:37:08.185Z,37.4
2023-03-08T00:42:08.565Z,37.3
2023-03-08T00:47:08.924Z,37.3
2023-03-08T00:52:09.253Z,37.2
2023-03-08T00:57:10.473Z,37.2
2023-03-08T01:02:10.863Z,37.1
2023-03-08T01:07:11.210Z,37.1
2023-03-08T01:12:11.606Z,37.1
2023-03-08T01:17:12.319Z,37
2023-03-08T01:22:12.801Z,36.9
2023-03-08T01:27:13.190Z,36.9
2023-03-08T01:32:13.605Z,36.9
2023-03-08T01:37:14.098Z,36.8
2023-03-08T01:42:14.510Z,36.7
2023-03-08T01:47:14.906Z,36.7
2023-03-08T01:52:15.267Z,36.7
2023-03-08T01:57:16.535Z,36.6
2023-03-08T02:02:17.799Z,36.6
2023-03-08T02:07:18.213Z,36.6
2023-03-08T02:12:19.525Z,36.5
2023-03-08T02:17:19.900Z,36.4
2023-03-08T02:22:20.265Z,36.4
2023-03-08T02:27:20.610Z,36.4
2023-03-08T02:32:21.059Z,36.4
2023-03-08T02:37:21.422Z,36.3
2023-03-08T02:42:22.038Z,36.2
2023-03-08T02:47:22.399Z,36.2
2023-03-08T02:52:22.753Z,36.2
2023-03-08T02:57:23.104Z,36.1
2023-03-08T03:02:23.476Z,36.1
2023-03-08T03:07:23.852Z,36.1
2023-03-08T03:12:25.091Z,36
2023-03-08T03:17:25.471Z,36
2023-03-08T03:22:25.855Z,35.9
2023-03-08T03:27:26.244Z,35.9
2023-03-08T03:32:26.639Z,35.9
2023-03-08T03:37:26.975Z,35.8
2023-03-08T03:42:27.326Z,35.8
2023-03-08T03:47:27.674Z,35.7
2023-03-08T03:52:28.047Z,35.7
2023-03-08T03:57:28.384Z,35.7
2023-03-08T04:02:28.739Z,35.6
2023-03-08T04:07:29.084Z,35.6
2023-03-08T04:12:29.451Z,35.6
2023-03-08T04:17:29.869Z,35.5
2023-03-08T04:22:30.197Z,35.5
2023-03-08T04:27:30.567Z,35.5
2023-03-08T04:32:31.115Z,35.4
2023-03-08T04:37:31.577Z,35.4
2023-03-08T04:42:32.166Z,35.4
2023-03-08T04:47:32.482Z,35.3
2023-03-08T04:52:32.842Z,35.3
2023-03-08T04:57:33.200Z,35.2
2023-03-08T05:02:33.744Z,35.2
2023-03-08T05:07:34.251Z,35.2
2023-03-08T05:12:34.653Z,35.1
2023-03-08T05:17:34.944Z,35.1
2023-03-08T05:22:45.100Z,35.1
2023-03-08T05:27:51.899Z,35.1
2023-03-08T05:32:52.196Z,35
2023-03-08T05:37:52.529Z,35
2023-03-08T05:42:52.864Z,34.9
2023-03-08T05:47:53.190Z,34.9
2023-03-08T05:52:53.481Z,34.9
2023-03-08T05:57:53.811Z,34.8
2023-03-08T06:02:54.095Z,34.8
2023-03-08T06:07:54.455Z,34.7
2023-03-08T06:12:54.756Z,34.7
2023-03-08T06:17:55.081Z,34.7
2023-03-08T06:22:55.391Z,34.7
2023-03-08T06:27:55.752Z,34.6
2023-03-08T06:32:57.023Z,34.6
2023-03-08T06:37:57.334Z,34.6
2023-03-08T06:42:57.614Z,34.6
2023-03-08T06:47:58.449Z,34.5
2023-03-08T06:52:58.926Z,34.5
2023-03-08T06:57:59.224Z,34.5
2023-03-08T07:02:59.683Z,34.4
2023-03-08T07:08:00.138Z,34.4
2023-03-08T07:13:00.504Z,34.4
2023-03-08T07:18:00.808Z,34.4
2023-03-08T07:23:01.118Z,34.3
2023-03-08T07:28:01.476Z,34.2
2023-03-08T07:33:01.808Z,34.2
2023-03-08T07:38:02.210Z,34.1
2023-03-08T07:43:02.511Z,34.1
2023-03-08T07:48:02.847Z,34.1
2023-03-08T07:53:03.121Z,34.1
2023-03-08T07:58:04.498Z,34.1
2023-03-08T08:03:04.790Z,34
2023-03-08T08:08:05.501Z,34
2023-03-08T08:13:05.810Z,34
2023-03-08T08:18:06.132Z,33.9
2023-03-08T08:23:06.416Z,33.9
2023-03-08T08:28:06.713Z,33.9
2023-03-08T08:33:06.975Z,33.9
2023-03-08T08:38:07.242Z,33.8
2023-03-08T08:43:07.503Z,33.8
2023-03-08T08:48:07.948Z,33.7
2023-03-08T08:53:08.441Z,33.7
2023-03-08T08:58:08.878Z,33.7
2023-03-08T09:03:09.136Z,33.7
2023-03-08T09:08:09.429Z,33.7
2023-03-08T09:13:09.712Z,33.6
2023-03-08T09:18:10.068Z,33.6
2023-03-08T09:23:10.475Z,33.6
2023-03-08T09:28:10.902Z,33.6
2023-03-08T09:33:11.201Z,33.5
2023-03-08T09:38:11.476Z,33.4
2023-03-08T09:43:12.613Z,33.4
2023-03-08T09:48:13.251Z,33.4
2023-03-08T09:53:14.457Z,33.4
2023-03-08T09:58:14.715Z,33.3
2023-03-08T10:03:15.016Z,33.3
2023-03-08T10:08:15.309Z,33.3
2023-03-08T10:13:15.845Z,33.3
2023-03-08T10:18:16.122Z,33.2
2023-03-08T10:23:16.357Z,33.2
2023-03-08T10:28:16.730Z,33.2
2023-03-08T10:33:17.007Z,33.2
2023-03-08T10:38:17.261Z,33.2
2023-03-08T10:43:18.348Z,33.1
2023-03-08T10:48:19.579Z,33.1
2023-03-08T10:53:19.887Z,33.1
2023-03-08T10:58:20.115Z,33.1
2023-03-08T11:03:20.501Z,33.1
2023-03-08T11:08:21.659Z,33
2023-03-08T11:13:21.945Z,32.9
2023-03-08T11:18:22.202Z,32.9
2023-03-08T11:23:22.450Z,32.8
2023-03-08T11:28:22.718Z,32.8
2023-03-08T11:33:23.180Z,32.8
2023-03-08T11:38:23.583Z,32.8
2023-03-08T11:43:23.854Z,32.7
2023-03-08T11:48:25.002Z,32.7
2023-03-08T11:53:25.223Z,32.7
2023-03-08T11:58:25.463Z,32.7
2023-03-08T12:03:25.790Z,32.7
2023-03-08T12:08:27.073Z,32.7
2023-03-08T12:13:27.354Z,32.6
2023-03-08T12:18:27.623Z,32.6
2023-03-08T12:23:27.864Z,32.6
2023-03-08T12:28:28.116Z,32.6
2023-03-08T12:33:28.424Z,32.6
2023-03-08T12:38:28.734Z,32.5
2023-03-08T12:43:29.252Z,32.5
2023-03-08T12:48:29.589Z,32.5
2023-03-08T12:53:29.945Z,32.5
2023-03-08T12:58:30.197Z,32.4
2023-03-08T13:03:30.432Z,32.4
2023-03-08T13:08:30.718Z,32.3
2023-03-08T13:13:38.557Z,32.2
2023-03-08T13:18:39.448Z,32.2
2023-03-08T13:23:39.844Z,32.2
2023-03-08T13:28:46.907Z,32.2
2023-03-08T13:33:47.832Z,32.2
2023-03-08T13:38:48.111Z,32.2
2023-03-08T13:43:50.411Z,32.2
2023-03-08T13:48:50.798Z,32.1
2023-03-08T13:53:51.054Z,32.1
2023-03-08T13:58:51.276Z,32.1
2023-03-08T14:03:51.478Z,32.1
2023-03-08T14:08:51.695Z,32
2023-03-08T14:13:52.033Z,32
2023-03-08T14:18:52.351Z,32
2023-03-08T14:23:52.600Z,32
2023-03-08T14:28:52.841Z,31.9
2023-03-08T14:33:53.262Z,31.9
2023-03-08T14:38:54.390Z,31.9
2023-03-08T14:43:54.557Z,31.9
2023-03-08T14:48:54.796Z,31.9
2023-03-08T14:53:56.023Z,31.9
2023-03-08T14:58:56.232Z,31.8
2023-03-08T15:03:56.456Z,31.8
2023-03-08T15:08:56.662Z,31.8
2023-03-08T15:13:57.100Z,31.8
2023-03-08T15:18:57.331Z,31.8
2023-03-08T15:23:57.760Z,31.8
2023-03-08T15:28:57.989Z,31.8
2023-03-08T15:33:58.195Z,31.6
2023-03-08T15:38:58.388Z,31.6
2023-03-08T15:44:00.352Z,31.6
2023-03-08T15:49:00.617Z,31.4
2023-03-08T15:54:00.879Z,31.4
2023-03-08T15:59:02.799Z,31.4
2023-03-08T16:04:07.829Z,31.4
2023-03-08T16:09:09.912Z,31.3
2023-03-08T16:14:11.722Z,31.3
2023-03-08T16:19:12.034Z,31.3
2023-03-08T16:24:14.049Z,31.3
2023-03-08T16:29:15.130Z,31.3
2023-03-08T16:34:15.406Z,31.2
2023-03-08T16:39:17.309Z,31.5
2023-03-08T16:44:17.607Z,34.5
2023-03-08T16:49:17.985Z,36.9
2023-03-08T16:54:18.449Z,39.6
2023-03-08T16:59:18.929Z,40.7
2023-03-08T17:04:19.383Z,41.9
2023-03-08T17:09:19.945Z,42.2
2023-03-08T17:14:20.454Z,42.2
2023-03-08T17:19:21.195Z,42.2
2023-03-08T17:24:22.632Z,42.3
2023-03-08T17:29:23.211Z,42.8
2023-03-08T17:34:24.021Z,43.1
2023-03-08T17:39:24.885Z,43.6
2023-03-08T17:44:25.586Z,44.2
2023-03-08T17:49:26.157Z,44.4
2023-03-08T17:54:27.041Z,44.2
2023-03-08T17:59:27.677Z,43.8
2023-03-08T18:04:28.890Z,44.4
2023-03-08T18:09:29.635Z,45.1
2023-03-08T18:14:39.393Z,45.2
2023-03-08T18:19:40.434Z,45.2
2023-03-08T18:24:41.118Z,45.1
2023-03-08T18:29:41.704Z,44.9
2023-03-08T18:34:42.325Z,43.4
2023-03-08T18:39:42.813Z,37.8
2023-03-08T18:44:43.165Z,36.7
2023-03-08T18:49:44.669Z,36.3
2023-03-08T18:54:45.448Z,36.1
2023-03-08T18:59:45.965Z,35.8
2023-03-08T19:04:46.318Z,35.6
2023-03-08T19:09:46.833Z,35.4
2023-03-08T19:14:47.422Z,34.8
2023-03-08T19:19:48.760Z,34.6
2023-03-08T19:24:49.063Z,34.4
2023-03-08T19:29:49.342Z,34.2
2023-03-08T19:34:50.325Z,34.2
2023-03-08T19:39:50.790Z,34.1
2023-03-08T19:44:51.092Z,33.9
2023-03-08T19:49:51.440Z,33.8
2023-03-08T19:54:51.732Z,33.7
2023-03-08T19:59:52.083Z,33.6
2023-03-08T20:04:52.349Z,33.6
2023-03-08T20:09:52.620Z,33.4
2023-03-08T20:14:53.253Z,33.4
2023-03-08T20:19:53.486Z,33.2
2023-03-08T20:24:53.783Z,33.2
2023-03-08T20:29:54.069Z,33.1
2023-03-08T20:34:54.288Z,33.1
2023-03-08T20:39:54.525Z,33
2023-03-08T20:44:54.798Z,32.9
2023-03-08T20:49:55.093Z,32.9
2023-03-08T20:54:55.343Z,32.8
2023-03-08T20:59:55.606Z,32.3
2023-03-08T21:04:55.908Z,31.3
2023-03-08T21:09:56.095Z,29.7
2023-03-08T21:14:58.058Z,29.1
2023-03-08T21:19:59.857Z,29.1
2023-03-08T21:25:01.644Z,29.1
2023-03-08T21:30:03.443Z,29
2023-03-08T21:35:05.257Z,29
2023-03-08T21:40:07.054Z,29
2023-03-08T21:45:08.879Z,29
2023-03-08T21:50:10.727Z,29
2023-03-08T21:55:12.568Z,29
2023-03-08T22:00:14.398Z,29
2023-03-08T22:05:16.251Z,28.9
2023-03-08T22:10:18.211Z,29
2023-03-08T22:15:20.028Z,28.9
2023-03-08T22:20:21.840Z,28.9
2023-03-08T22:25:23.636Z,28.9
2023-03-08T22:30:25.443Z,28.9
2023-03-08T22:35:27.324Z,28.9
2023-03-08T22:40:29.142Z,28.9
2023-03-08T22:45:30.989Z,28.9
2023-03-08T22:50:32.959Z,28.9
2023-03-08T22:55:34.835Z,28.9
2023-03-08T23:00:36.888Z,28.9
2023-03-08T23:05:38.726Z,28.9
2023-03-08T23:10:40.511Z,28.9
2023-03-08T23:15:42.301Z,28.9
2023-03-08T23:20:44.136Z,28.9
2023-03-08T23:25:46.039Z,28.8
2023-03-08T23:30:47.856Z,28.8
2023-03-08T23:35:49.776Z,28.8
2023-03-08T23:40:51.727Z,28.8
2023-03-08T23:45:53.632Z,28.8
2023-03-08T23:50:55.539Z,28.8
2023-03-08T23:55:57.337Z,28.8
